createdAt,value
2018-03-19T00:02:46.412Z,9.35
2018-03-19T00:08:47.072Z,8.24
2018-03-19T00:12:47.556Z,8.37
2018-03-19T00:18:48.205Z,11.77
2018-03-19T00:24:48.839Z,8.2
2018-03-19T00:28:49.491Z,11.47
2018-03-19T00:34:50.069Z,7.31
2018-03-19T00:38:50.696Z,8.97
2018-03-19T00:44:51.351Z,9.6
2018-03-19T00:50:51.995Z,9.92
2018-03-19T00:54:52.894Z,8.68
2018-03-19T01:00:53.587Z,6.47
2018-03-19T01:04:54.169Z,6.57
2018-03-19T01:06:55.110Z,7.13
2018-03-19T01:10:55.599Z,6.48
2018-03-19T01:16:56.215Z,5.63
2018-03-19T01:20:56.769Z,6.54
2018-03-19T01:26:57.486Z,5.99
2018-03-19T01:30:58.041Z,6.14
2018-03-19T01:32:58.579Z,5
2018-03-19T01:36:59.251Z,6
2018-03-19T01:42:59.774Z,3.82
2018-03-19T01:47:00.404Z,4.76
2018-03-19T01:53:00.890Z,3.72
2018-03-19T01:59:01.561Z,3.9
2018-03-19T02:03:02.091Z,4.46
2018-03-19T02:09:02.657Z,4.8
2018-03-19T02:13:03.139Z,3.58
2018-03-19T02:19:03.697Z,3.99
2018-03-19T02:25:04.367Z,3.52
2018-03-19T02:29:04.889Z,3.82
2018-03-19T02:35:05.545Z,3.32
2018-03-19T02:39:06.073Z,3.86
2018-03-19T02:45:06.884Z,3.78
2018-03-19T02:51:07.529Z,3.09
2018-03-19T02:55:08.108Z,4.27
2018-03-19T03:01:08.863Z,2.53
2018-03-19T03:05:09.592Z,2.56
2018-03-19T03:07:10.251Z,2.55
2018-03-19T03:11:10.903Z,2.06
2018-03-19T03:17:11.531Z,3.14
2018-03-19T03:21:12.175Z,2.54
2018-03-19T03:27:12.773Z,1.77
2018-03-19T03:31:13.340Z,1.29
2018-03-19T03:33:13.818Z,1.9
2018-03-19T03:37:14.452Z,1.72
2018-03-19T03:43:15.055Z,2.21
2018-03-19T03:47:15.677Z,1.99
2018-03-19T03:53:16.361Z,1.84
2018-03-19T03:57:16.905Z,1.32
2018-03-19T03:59:17.485Z,1.99
2018-03-19T04:03:18.098Z,1.61
2018-03-19T04:09:18.652Z,2.27
2018-03-19T04:13:19.481Z,2.28
2018-03-19T04:19:20.125Z,2.44
2018-03-19T04:25:20.837Z,1.97
2018-03-19T04:29:21.333Z,1.94
2018-03-19T04:35:22.026Z,2.55
2018-03-19T04:39:22.786Z,1.99
2018-03-19T04:45:23.310Z,1.34
2018-03-19T04:51:23.958Z,1.9
2018-03-19T04:55:24.590Z,1.68
2018-03-19T05:01:25.272Z,2.11
2018-03-19T05:05:25.955Z,1.72
2018-03-19T05:11:26.548Z,2.72
2018-03-19T05:17:27.238Z,2.37
2018-03-19T05:21:28.000Z,2.78
2018-03-19T05:27:28.700Z,2.56
2018-03-19T05:31:29.301Z,2.61
2018-03-19T05:33:29.737Z,4.49
2018-03-19T05:37:30.291Z,2.47
2018-03-19T05:43:30.893Z,3.03
2018-03-19T05:47:31.604Z,3.45
2018-03-19T05:53:32.161Z,2.47
2018-03-19T05:57:32.678Z,2.45
2018-03-19T05:59:33.141Z,3.36
2018-03-19T06:03:33.823Z,3.9
2018-03-19T06:09:34.374Z,3.69
2018-03-19T06:13:34.921Z,2.96
2018-03-19T06:19:35.493Z,3.34
2018-03-19T06:23:36.049Z,3.14
2018-03-19T06:25:36.617Z,3.54
2018-03-19T06:29:37.114Z,5.12
2018-03-19T06:35:37.689Z,2.61
2018-03-19T06:39:38.203Z,3.09
2018-03-19T06:45:38.917Z,3.79
2018-03-19T06:51:39.495Z,4.37
2018-03-19T06:55:40.062Z,6.57
2018-03-19T07:01:40.676Z,2.77
2018-03-19T07:05:41.501Z,3
2018-03-19T07:11:42.202Z,3.7
2018-03-19T07:17:42.934Z,3.18
2018-03-19T07:21:43.974Z,3.19
2018-03-19T07:27:44.631Z,3.65
2018-03-19T07:31:45.296Z,3.3
2018-03-19T07:37:45.947Z,3.48
2018-03-19T07:43:46.520Z,3.67
2018-03-19T07:47:47.241Z,3.12
2018-03-19T07:53:47.864Z,5.84
2018-03-19T07:57:48.577Z,5.36
2018-03-19T07:59:49.243Z,3.93
2018-03-19T08:03:49.871Z,4.94
2018-03-19T08:09:50.655Z,11.21
2018-03-19T08:13:51.292Z,10.9
2018-03-19T08:19:53.008Z,6.46
2018-03-19T08:23:53.615Z,7.77
2018-03-19T08:25:54.267Z,9.24
2018-03-19T08:29:54.904Z,17.12
2018-03-19T08:35:55.575Z,3.96
2018-03-19T08:39:56.251Z,2.04
2018-03-19T08:45:56.921Z,2.46
2018-03-19T08:49:57.673Z,2.02
2018-03-19T08:51:58.290Z,2.61
2018-03-19T08:55:58.952Z,2.88
2018-03-19T09:01:59.539Z,3.64
2018-03-19T09:06:00.152Z,3.2
2018-03-19T09:12:00.759Z,2.26
2018-03-19T09:18:01.542Z,2.14
2018-03-19T09:22:05.231Z,2.55
2018-03-19T09:28:05.882Z,3.18
2018-03-19T09:32:06.550Z,2.34
2018-03-19T09:38:07.266Z,2.66
2018-03-19T09:44:08.038Z,1.98
2018-03-19T09:48:08.698Z,2.04
2018-03-19T09:54:09.423Z,2.05
2018-03-19T09:58:10.053Z,1.72
2018-03-19T10:04:10.752Z,1.79
2018-03-19T10:10:11.500Z,2.08
2018-03-19T10:14:12.037Z,2.07
2018-03-19T10:20:12.647Z,1.98
2018-03-19T10:24:18.139Z,1.67
2018-03-19T10:30:19.175Z,1.79
2018-03-19T10:36:19.981Z,2.1
2018-03-19T10:40:20.710Z,1.86
2018-03-19T10:46:21.462Z,2.62
2018-03-19T10:50:22.125Z,2.29
2018-03-19T10:56:22.987Z,2.01
2018-03-19T11:02:23.641Z,2.12
2018-03-19T11:06:24.412Z,2.06
2018-03-19T11:12:25.022Z,2.15
2018-03-19T11:16:25.707Z,2.38
2018-03-19T11:18:26.342Z,1.95
2018-03-19T11:22:27.009Z,2
2018-03-19T11:28:27.758Z,2.93
2018-03-19T11:32:28.423Z,1.77
2018-03-19T11:38:28.972Z,2.68
2018-03-19T11:42:29.706Z,2.78
2018-03-19T11:44:30.724Z,2.62
2018-03-19T11:48:31.719Z,1.83
2018-03-19T11:54:32.328Z,2.54
2018-03-19T11:58:32.859Z,2.29
2018-03-19T12:04:33.467Z,3.41
2018-03-19T12:08:34.041Z,2.14
2018-03-19T12:10:34.609Z,1.78
2018-03-19T12:14:35.348Z,1.59
2018-03-19T12:20:36.016Z,3.2
2018-03-19T12:24:36.613Z,2.7
2018-03-19T12:30:37.195Z,2.09
2018-03-19T12:36:37.916Z,1.93
2018-03-19T12:40:38.494Z,2.49
2018-03-19T12:46:39.100Z,3.65
2018-03-19T12:50:39.614Z,2.83
2018-03-19T12:56:40.130Z,2.44
2018-03-19T13:02:40.834Z,2.63
2018-03-19T13:06:41.424Z,2.34
2018-03-19T13:12:42.213Z,3.3
2018-03-19T13:16:42.775Z,2.34
2018-03-19T13:22:43.560Z,2.5
2018-03-19T13:28:44.236Z,2.66
2018-03-19T13:32:44.836Z,2.19
2018-03-19T13:38:45.501Z,3.06
2018-03-19T13:42:46.152Z,4.66
2018-03-19T13:44:46.648Z,2.86
2018-03-19T13:48:47.329Z,2.09
2018-03-19T13:54:47.893Z,3.49
2018-03-19T13:58:48.707Z,3.41
2018-03-19T14:04:49.276Z,3.96
2018-03-19T14:08:49.993Z,3.36
2018-03-19T14:10:50.465Z,2.65
2018-03-19T14:14:51.127Z,2.66
2018-03-19T14:20:51.681Z,2.49
2018-03-19T14:24:52.134Z,2.76
2018-03-19T14:30:52.925Z,3.55
2018-03-19T14:34:53.634Z,2.9
2018-03-19T14:36:54.136Z,2.49
2018-03-19T14:40:54.674Z,2.43
2018-03-19T14:46:55.415Z,2.76
2018-03-19T14:50:55.940Z,3.83
2018-03-19T14:56:56.767Z,2.81
2018-03-19T15:02:57.401Z,3
2018-03-19T15:06:58.014Z,2.57
2018-03-19T15:12:58.648Z,2.91
2018-03-19T15:16:59.285Z,2.17
2018-03-19T15:22:59.977Z,2.67
2018-03-19T15:29:00.678Z,4.4
2018-03-19T15:33:01.342Z,4.64
2018-03-19T15:39:02.049Z,2.71
2018-03-19T15:43:02.698Z,2.56
2018-03-19T15:49:03.321Z,2.44
2018-03-19T15:55:04.428Z,7.9
2018-03-19T15:59:05.170Z,10.1
2018-03-19T16:05:05.850Z,2.96
2018-03-19T16:09:06.583Z,4.23
2018-03-19T16:11:07.184Z,4.34
2018-03-19T16:15:08.115Z,3.88
2018-03-19T16:21:08.773Z,3.05
2018-03-19T16:25:09.490Z,2.73
2018-03-19T16:31:10.098Z,3.91
2018-03-19T16:35:10.773Z,4.6
2018-03-19T16:37:11.385Z,3.12
2018-03-19T16:41:11.960Z,3.96
2018-03-19T16:47:12.735Z,3.59
2018-03-19T16:51:13.409Z,4.52
2018-03-19T16:57:13.981Z,3.25
2018-03-19T17:01:14.576Z,3.58
2018-03-19T17:03:15.223Z,3.98
2018-03-19T17:07:15.948Z,5.22
2018-03-19T17:13:16.531Z,5.69
2018-03-19T17:17:17.171Z,6.95
2018-03-19T17:23:17.865Z,5.07
2018-03-19T17:29:18.511Z,5.1
2018-03-19T17:33:19.812Z,5.26
2018-03-19T17:39:20.559Z,4.43
2018-03-19T17:43:21.273Z,4.11
2018-03-19T17:49:22.017Z,6.06
2018-03-19T17:55:22.834Z,7.75
2018-03-19T17:59:23.443Z,8.36
2018-03-19T18:05:24.052Z,3.62
2018-03-19T18:09:24.655Z,3.1
2018-03-19T18:15:25.984Z,3.15
2018-03-19T18:21:26.590Z,3.85
2018-03-19T18:25:27.321Z,2.91
2018-03-19T18:31:27.949Z,4.35
2018-03-19T18:35:28.581Z,4.37
2018-03-19T18:37:29.364Z,4.88
2018-03-19T18:41:30.271Z,4.46
2018-03-19T18:47:30.902Z,7.38
2018-03-19T18:51:31.571Z,7.76
2018-03-19T18:57:32.138Z,8.78
2018-03-19T19:01:32.772Z,10.88
2018-03-19T19:03:33.300Z,6.21
2018-03-19T19:07:33.864Z,10.74
2018-03-19T19:13:34.471Z,7.66
2018-03-19T19:17:35.092Z,10.27
2018-03-19T19:23:35.676Z,7.03
2018-03-19T19:27:36.410Z,9.46
2018-03-19T19:29:37.075Z,10.88
2018-03-19T19:33:37.737Z,11.82
2018-03-19T19:39:38.366Z,12.88
2018-03-19T19:43:39.108Z,14.19
2018-03-19T19:49:39.877Z,6.06
2018-03-19T19:53:40.460Z,7.68
2018-03-19T19:55:41.051Z,6.87
2018-03-19T19:59:41.749Z,8.89
2018-03-19T20:05:42.399Z,7.21
2018-03-19T20:09:43.016Z,11.27
2018-03-19T20:15:43.704Z,10.48
2018-03-19T20:21:44.309Z,11.06
2018-03-19T20:25:44.854Z,12.79
2018-03-19T20:31:45.451Z,11.96
2018-03-19T20:35:46.231Z,11.24
2018-03-19T20:41:46.977Z,14.23
2018-03-19T20:47:47.593Z,8.5
2018-03-19T20:51:48.318Z,7.97
2018-03-19T20:57:48.911Z,7.88
2018-03-19T21:01:49.526Z,8.1
2018-03-19T21:07:50.239Z,9.59
2018-03-19T21:13:50.873Z,14.57
2018-03-19T21:17:51.472Z,13.46
2018-03-19T21:23:52.110Z,12.41
2018-03-19T21:27:53.452Z,9.31
2018-03-19T21:29:54.034Z,8.89
2018-03-19T21:33:54.654Z,8.2
2018-03-19T21:39:55.320Z,8.63
2018-03-19T21:43:55.914Z,8.2
2018-03-19T21:49:56.602Z,7.69
2018-03-19T21:53:57.164Z,6.49
2018-03-19T21:55:57.812Z,5.16
2018-03-19T21:59:58.494Z,6.14
2018-03-19T22:05:59.317Z,5.88
2018-03-19T22:09:59.970Z,8.58
2018-03-19T22:16:00.753Z,6.13
2018-03-19T22:20:03.021Z,8.51
2018-03-19T22:22:03.599Z,9.21
2018-03-19T22:26:04.232Z,12.12
2018-03-19T22:32:04.863Z,8.32
2018-03-19T22:36:05.386Z,11.37
2018-03-19T22:42:06.036Z,9.18
2018-03-19T22:48:06.733Z,7.5
2018-03-19T22:52:07.398Z,8.51
2018-03-19T22:58:08.076Z,7.97
2018-03-19T23:02:08.704Z,9.78
2018-03-19T23:08:09.276Z,8.29
2018-03-19T23:14:09.946Z,8.46
2018-03-19T23:18:10.524Z,12.53
2018-03-19T23:24:11.133Z,6.96
2018-03-19T23:28:11.737Z,8.83
2018-03-19T23:34:12.371Z,8.19
2018-03-19T23:40:12.995Z,10.02
2018-03-19T23:44:13.551Z,9.61
2018-03-19T23:50:14.278Z,7.32
2018-03-19T23:54:14.772Z,8.12
2018-03-19T23:56:15.350Z,6.53
